sensor_id;sensor_type;location;lat;lon;timestamp;P1;durP1;ratioP1;P2;durP2;ratioP2
53915;SDS011;39827;49.652;18.770;2023-02-15T00:01:09;453.15;;;416.15;;
53915;SDS011;39827;49.652;18.770;2023-02-15T00:03:36;532.50;;;490.20;;
53915;SDS011;39827;49.652;18.770;2023-02-15T00:06:01;529.05;;;485.55;;
53915;SDS011;39827;49.652;18.770;2023-02-15T00:08:27;568.05;;;523.25;;
53915;SDS011;39827;49.652;18.770;2023-02-15T00:10:52;537.80;;;494.70;;
53915;SDS011;39827;49.652;18.770;2023-02-15T00:13:18;600.35;;;552.85;;
53915;SDS011;39827;49.652;18.770;2023-02-15T00:15:43;601.08;;;554.00;;
53915;SDS011;39827;49.652;18.770;2023-02-15T00:18:09;629.63;;;579.58;;
53915;SDS011;39827;49.652;18.770;2023-02-15T00:20:34;632.58;;;582.38;;
53915;SDS011;39827;49.652;18.770;2023-02-15T00:23:00;618.80;;;569.58;;
53915;SDS011;39827;49.652;18.770;2023-02-15T00:25:25;645.67;;;595.97;;
53915;SDS011;39827;49.652;18.770;2023-02-15T00:27:51;632.50;;;582.75;;
53915;SDS011;39827;49.652;18.770;2023-02-15T00:30:16;547.47;;;503.00;;
53915;SDS011;39827;49.652;18.770;2023-02-15T00:32:42;567.97;;;522.38;;
53915;SDS011;39827;49.652;18.770;2023-02-15T00:35:07;547.83;;;502.88;;
53915;SDS011;39827;49.652;18.770;2023-02-15T00:37:34;467.90;;;429.02;;
53915;SDS011;39827;49.652;18.770;2023-02-15T00:40:00;432.75;;;398.63;;
53915;SDS011;39827;49.652;18.770;2023-02-15T00:42:25;435.40;;;400.88;;
53915;SDS011;39827;49.652;18.770;2023-02-15T00:44:51;482.05;;;442.90;;
53915;SDS011;39827;49.652;18.770;2023-02-15T00:47:16;511.83;;;470.40;;
53915;SDS011;39827;49.652;18.770;2023-02-15T00:49:42;459.30;;;422.63;;
53915;SDS011;39827;49.652;18.770;2023-02-15T00:52:07;455.30;;;419.73;;
53915;SDS011;39827;49.652;18.770;2023-02-15T00:54:32;448.17;;;413.17;;
53915;SDS011;39827;49.652;18.770;2023-02-15T00:56:59;483.10;;;444.10;;
53915;SDS011;39827;49.652;18.770;2023-02-15T00:59:25;496.02;;;456.38;;
53915;SDS011;39827;49.652;18.770;2023-02-15T01:01:50;424.95;;;392.00;;
53915;SDS011;39827;49.652;18.770;2023-02-15T01:04:15;447.67;;;412.52;;
53915;SDS011;39827;49.652;18.770;2023-02-15T01:06:41;450.88;;;415.95;;
53915;SDS011;39827;49.652;18.770;2023-02-15T01:09:06;431.92;;;398.38;;
53915;SDS011;39827;49.652;18.770;2023-02-15T01:11:32;440.00;;;405.13;;
53915;SDS011;39827;49.652;18.770;2023-02-15T01:13:57;443.38;;;407.60;;
53915;SDS011;39827;49.652;18.770;2023-02-15T01:16:24;502.88;;;462.35;;
53915;SDS011;39827;49.652;18.770;2023-02-15T01:18:51;591.53;;;544.70;;
53915;SDS011;39827;49.652;18.770;2023-02-15T01:21:18;617.58;;;568.65;;
53915;SDS011;39827;49.652;18.770;2023-02-15T01:23:45;632.25;;;583.08;;
53915;SDS011;39827;49.652;18.770;2023-02-15T01:26:11;587.00;;;540.05;;
53915;SDS011;39827;49.652;18.770;2023-02-15T01:28:37;546.70;;;501.75;;
53915;SDS011;39827;49.652;18.770;2023-02-15T01:31:10;549.47;;;504.02;;
53915;SDS011;39827;49.652;18.770;2023-02-15T01:33:37;547.30;;;502.10;;
53915;SDS011;39827;49.652;18.770;2023-02-15T01:36:03;613.30;;;564.30;;
53915;SDS011;39827;49.652;18.770;2023-02-15T01:38:30;570.15;;;524.00;;
53915;SDS011;39827;49.652;18.770;2023-02-15T01:40:55;512.92;;;469.50;;
53915;SDS011;39827;49.652;18.770;2023-02-15T01:43:45;468.65;;;428.23;;
53915;SDS011;39827;49.652;18.770;2023-02-15T01:46:12;464.85;;;426.45;;
53915;SDS011;39827;49.652;18.770;2023-02-15T01:48:48;445.20;;;408.17;;
53915;SDS011;39827;49.652;18.770;2023-02-15T01:51:21;380.73;;;350.75;;
53915;SDS011;39827;49.652;18.770;2023-02-15T01:53:51;352.00;;;324.08;;
53915;SDS011;39827;49.652;18.770;2023-02-15T01:56:27;400.58;;;368.80;;
53915;SDS011;39827;49.652;18.770;2023-02-15T01:58:56;433.27;;;397.10;;
53915;SDS011;39827;49.652;18.770;2023-02-15T02:01:27;524.50;;;481.17;;
53915;SDS011;39827;49.652;18.770;2023-02-15T02:06:38;463.38;;;423.38;;
53915;SDS011;39827;49.652;18.770;2023-02-15T02:09:04;554.33;;;506.95;;
53915;SDS011;39827;49.652;18.770;2023-02-15T02:11:30;630.08;;;579.53;;
53915;SDS011;39827;49.652;18.770;2023-02-15T02:13:57;625.92;;;575.60;;
53915;SDS011;39827;49.652;18.770;2023-02-15T02:38:44;524.33;;;480.40;;
53915;SDS011;39827;49.652;18.770;2023-02-15T02:41:16;600.10;;;551.30;;
53915;SDS011;39827;49.652;18.770;2023-02-15T02:44:01;622.65;;;572.20;;
53915;SDS011;39827;49.652;18.770;2023-02-15T02:46:34;621.10;;;571.42;;
53915;SDS011;39827;49.652;18.770;2023-02-15T02:49:06;597.00;;;548.65;;
53915;SDS011;39827;49.652;18.770;2023-02-15T02:51:31;551.70;;;505.80;;
53915;SDS011;39827;49.652;18.770;2023-02-15T02:53:57;535.22;;;490.05;;
53915;SDS011;39827;49.652;18.770;2023-02-15T02:56:29;450.40;;;411.52;;
53915;SDS011;39827;49.652;18.770;2023-02-15T02:59:03;437.48;;;401.35;;
53915;SDS011;39827;49.652;18.770;2023-02-15T03:01:40;396.63;;;364.30;;
53915;SDS011;39827;49.652;18.770;2023-02-15T03:04:14;434.40;;;397.65;;
53915;SDS011;39827;49.652;18.770;2023-02-15T03:09:30;441.13;;;404.27;;
53915;SDS011;39827;49.652;18.770;2023-02-15T03:12:07;469.20;;;429.38;;
53915;SDS011;39827;49.652;18.770;2023-02-15T03:14:33;498.63;;;456.95;;
53915;SDS011;39827;49.652;18.770;2023-02-15T03:17:00;511.65;;;468.17;;
53915;SDS011;39827;49.652;18.770;2023-02-15T03:19:27;489.80;;;448.27;;
53915;SDS011;39827;49.652;18.770;2023-02-15T03:21:56;452.70;;;415.88;;
53915;SDS011;39827;49.652;18.770;2023-02-15T03:24:44;387.30;;;355.73;;
53915;SDS011;39827;49.652;18.770;2023-02-15T03:27:15;354.90;;;327.73;;
53915;SDS011;39827;49.652;18.770;2023-02-15T03:29:46;463.45;;;424.90;;
53915;SDS011;39827;49.652;18.770;2023-02-15T03:32:16;523.80;;;480.25;;
53915;SDS011;39827;49.652;18.770;2023-02-15T03:34:43;606.17;;;557.28;;
53915;SDS011;39827;49.652;18.770;2023-02-15T03:43:45;550.22;;;503.90;;
53915;SDS011;39827;49.652;18.770;2023-02-15T03:45:55;454.65;;;415.63;;
53915;SDS011;39827;49.652;18.770;2023-02-15T03:48:30;415.55;;;380.20;;
53915;SDS011;39827;49.652;18.770;2023-02-15T03:51:09;452.13;;;414.10;;
53915;SDS011;39827;49.652;18.770;2023-02-15T03:54:05;362.27;;;333.50;;
53915;SDS011;39827;49.652;18.770;2023-02-15T03:56:33;288.13;;;265.23;;
53915;SDS011;39827;49.652;18.770;2023-02-15T03:59:00;353.67;;;325.65;;
53915;SDS011;39827;49.652;18.770;2023-02-15T04:01:47;414.85;;;381.10;;
53915;SDS011;39827;49.652;18.770;2023-02-15T04:04:36;382.25;;;352.33;;
53915;SDS011;39827;49.652;18.770;2023-02-15T04:07:04;352.85;;;324.73;;
53915;SDS011;39827;49.652;18.770;2023-02-15T04:09:31;364.20;;;335.48;;
53915;SDS011;39827;49.652;18.770;2023-02-15T04:12:15;367.48;;;337.90;;
53915;SDS011;39827;49.652;18.770;2023-02-15T04:14:41;321.52;;;295.67;;
53915;SDS011;39827;49.652;18.770;2023-02-15T04:17:25;316.30;;;290.38;;
53915;SDS011;39827;49.652;18.770;2023-02-15T04:19:50;306.30;;;281.90;;
53915;SDS011;39827;49.652;18.770;2023-02-15T04:22:34;365.80;;;335.70;;
53915;SDS011;39827;49.652;18.770;2023-02-15T04:25:18;377.88;;;347.33;;
53915;SDS011;39827;49.652;18.770;2023-02-15T04:27:48;339.20;;;310.67;;
53915;SDS011;39827;49.652;18.770;2023-02-15T04:30:16;336.92;;;309.70;;
53915;SDS011;39827;49.652;18.770;2023-02-15T04:32:43;342.83;;;315.85;;
53915;SDS011;39827;49.652;18.770;2023-02-15T04:35:08;344.55;;;316.20;;
53915;SDS011;39827;49.652;18.770;2023-02-15T04:37:34;294.80;;;271.30;;
53915;SDS011;39827;49.652;18.770;2023-02-15T04:39:59;246.30;;;225.95;;
53915;SDS011;39827;49.652;18.770;2023-02-15T04:42:25;372.30;;;342.00;;
53915;SDS011;39827;49.652;18.770;2023-02-15T04:44:51;366.70;;;336.90;;
53915;SDS011;39827;49.652;18.770;2023-02-15T04:47:17;413.45;;;379.55;;
53915;SDS011;39827;49.652;18.770;2023-02-15T04:49:42;344.17;;;316.23;;
53915;SDS011;39827;49.652;18.770;2023-02-15T04:52:08;346.70;;;318.02;;
53915;SDS011;39827;49.652;18.770;2023-02-15T04:54:34;349.55;;;320.70;;
53915;SDS011;39827;49.652;18.770;2023-02-15T04:56:59;406.55;;;372.90;;
53915;SDS011;39827;49.652;18.770;2023-02-15T04:59:25;442.33;;;403.42;;
53915;SDS011;39827;49.652;18.770;2023-02-15T05:01:50;366.30;;;333.67;;
53915;SDS011;39827;49.652;18.770;2023-02-15T05:04:16;378.42;;;347.38;;
53915;SDS011;39827;49.652;18.770;2023-02-15T05:06:41;442.30;;;404.60;;
53915;SDS011;39827;49.652;18.770;2023-02-15T05:09:06;478.15;;;436.42;;
53915;SDS011;39827;49.652;18.770;2023-02-15T05:11:32;510.52;;;466.38;;
53915;SDS011;39827;49.652;18.770;2023-02-15T05:13:57;489.02;;;446.92;;
53915;SDS011;39827;49.652;18.770;2023-02-15T05:16:23;475.45;;;434.75;;
53915;SDS011;39827;49.652;18.770;2023-02-15T05:18:48;473.45;;;432.42;;
53915;SDS011;39827;49.652;18.770;2023-02-15T05:21:14;474.60;;;433.77;;
53915;SDS011;39827;49.652;18.770;2023-02-15T05:23:41;425.73;;;389.05;;
53915;SDS011;39827;49.652;18.770;2023-02-15T05:26:08;444.65;;;406.48;;
53915;SDS011;39827;49.652;18.770;2023-02-15T05:28:54;447.55;;;409.58;;
53915;SDS011;39827;49.652;18.770;2023-02-15T05:31:20;438.63;;;401.52;;
53915;SDS011;39827;49.652;18.770;2023-02-15T05:33:45;463.75;;;423.60;;
53915;SDS011;39827;49.652;18.770;2023-02-15T05:36:11;512.08;;;467.95;;
53915;SDS011;39827;49.652;18.770;2023-02-15T05:38:37;537.05;;;491.30;;
53915;SDS011;39827;49.652;18.770;2023-02-15T05:41:04;584.83;;;536.85;;
53915;SDS011;39827;49.652;18.770;2023-02-15T05:43:30;561.65;;;515.05;;
53915;SDS011;39827;49.652;18.770;2023-02-15T05:45:56;505.45;;;462.00;;
53915;SDS011;39827;49.652;18.770;2023-02-15T05:48:22;411.85;;;377.13;;
53915;SDS011;39827;49.652;18.770;2023-02-15T05:50:59;326.77;;;300.02;;
53915;SDS011;39827;49.652;18.770;2023-02-15T05:53:26;295.05;;;270.48;;
53915;SDS011;39827;49.652;18.770;2023-02-15T05:55:53;362.40;;;332.30;;
53915;SDS011;39827;49.652;18.770;2023-02-15T05:58:23;365.10;;;334.70;;
53915;SDS011;39827;49.652;18.770;2023-02-15T06:00:50;403.10;;;369.35;;
53915;SDS011;39827;49.652;18.770;2023-02-15T06:03:15;453.90;;;414.52;;
53915;SDS011;39827;49.652;18.770;2023-02-15T06:05:40;449.67;;;410.92;;
53915;SDS011;39827;49.652;18.770;2023-02-15T06:08:06;379.13;;;347.65;;
53915;SDS011;39827;49.652;18.770;2023-02-15T06:10:32;394.55;;;361.83;;
53915;SDS011;39827;49.652;18.770;2023-02-15T06:12:57;332.52;;;305.65;;
53915;SDS011;39827;49.652;18.770;2023-02-15T06:15:22;345.98;;;315.98;;
53915;SDS011;39827;49.652;18.770;2023-02-15T06:17:48;370.52;;;340.23;;
53915;SDS011;39827;49.652;18.770;2023-02-15T06:20:13;338.92;;;310.27;;
53915;SDS011;39827;49.652;18.770;2023-02-15T06:22:39;339.55;;;310.27;;
53915;SDS011;39827;49.652;18.770;2023-02-15T06:25:04;331.27;;;302.67;;
53915;SDS011;39827;49.652;18.770;2023-02-15T06:27:30;308.13;;;283.08;;
53915;SDS011;39827;49.652;18.770;2023-02-15T06:29:55;356.90;;;326.70;;
53915;SDS011;39827;49.652;18.770;2023-02-15T06:32:21;289.80;;;265.45;;
53915;SDS011;39827;49.652;18.770;2023-02-15T06:34:46;279.85;;;256.50;;
53915;SDS011;39827;49.652;18.770;2023-02-15T06:37:12;220.00;;;201.40;;
53915;SDS011;39827;49.652;18.770;2023-02-15T06:39:38;168.73;;;154.82;;
53915;SDS011;39827;49.652;18.770;2023-02-15T06:42:04;269.20;;;247.52;;
53915;SDS011;39827;49.652;18.770;2023-02-15T06:44:29;238.95;;;218.70;;
53915;SDS011;39827;49.652;18.770;2023-02-15T06:46:55;166.35;;;152.32;;
53915;SDS011;39827;49.652;18.770;2023-02-15T06:49:20;175.60;;;161.57;;
53915;SDS011;39827;49.652;18.770;2023-02-15T06:51:45;203.55;;;188.30;;
53915;SDS011;39827;49.652;18.770;2023-02-15T06:54:11;223.02;;;205.15;;
53915;SDS011;39827;49.652;18.770;2023-02-15T06:56:36;165.40;;;152.15;;
53915;SDS011;39827;49.652;18.770;2023-02-15T06:59:02;151.07;;;139.02;;
53915;SDS011;39827;49.652;18.770;2023-02-15T07:01:28;198.05;;;182.45;;
53915;SDS011;39827;49.652;18.770;2023-02-15T07:03:53;159.20;;;145.88;;
53915;SDS011;39827;49.652;18.770;2023-02-15T07:06:19;184.93;;;170.38;;
53915;SDS011;39827;49.652;18.770;2023-02-15T07:08:44;166.35;;;153.73;;
53915;SDS011;39827;49.652;18.770;2023-02-15T07:11:10;165.48;;;152.80;;
53915;SDS011;39827;49.652;18.770;2023-02-15T07:13:54;154.95;;;143.35;;
53915;SDS011;39827;49.652;18.770;2023-02-15T07:16:19;144.02;;;133.40;;
53915;SDS011;39827;49.652;18.770;2023-02-15T07:18:45;134.85;;;125.32;;
53915;SDS011;39827;49.652;18.770;2023-02-15T07:21:10;149.85;;;139.20;;
53915;SDS011;39827;49.652;18.770;2023-02-15T07:23:36;135.30;;;125.72;;
53915;SDS011;39827;49.652;18.770;2023-02-15T07:26:03;159.35;;;148.07;;
53915;SDS011;39827;49.652;18.770;2023-02-15T07:28:30;157.23;;;146.63;;
53915;SDS011;39827;49.652;18.770;2023-02-15T07:30:57;238.85;;;222.35;;
53915;SDS011;39827;49.652;18.770;2023-02-15T07:33:23;281.02;;;261.67;;
53915;SDS011;39827;49.652;18.770;2023-02-15T07:35:49;148.88;;;137.95;;
53915;SDS011;39827;49.652;18.770;2023-02-15T07:38:16;159.23;;;147.48;;
53915;SDS011;39827;49.652;18.770;2023-02-15T07:40:42;239.63;;;210.48;;
53915;SDS011;39827;49.652;18.770;2023-02-15T07:43:08;714.35;;;283.20;;
53915;SDS011;39827;49.652;18.770;2023-02-15T07:45:33;624.75;;;268.13;;
53915;SDS011;39827;49.652;18.770;2023-02-15T07:48:02;406.67;;;209.10;;
53915;SDS011;39827;49.652;18.770;2023-02-15T07:50:28;382.58;;;263.48;;
53915;SDS011;39827;49.652;18.770;2023-02-15T07:52:53;261.02;;;242.13;;
53915;SDS011;39827;49.652;18.770;2023-02-15T07:55:19;154.02;;;142.45;;
53915;SDS011;39827;49.652;18.770;2023-02-15T07:57:45;133.90;;;123.57;;
53915;SDS011;39827;49.652;18.770;2023-02-15T08:00:12;116.40;;;107.30;;
53915;SDS011;39827;49.652;18.770;2023-02-15T08:02:39;99.80;;;91.93;;
53915;SDS011;39827;49.652;18.770;2023-02-15T08:05:05;87.15;;;79.57;;
53915;SDS011;39827;49.652;18.770;2023-02-15T08:07:31;82.82;;;76.00;;
53915;SDS011;39827;49.652;18.770;2023-02-15T08:09:56;84.63;;;77.40;;
53915;SDS011;39827;49.652;18.770;2023-02-15T08:12:22;71.82;;;65.78;;
53915;SDS011;39827;49.652;18.770;2023-02-15T08:14:47;68.00;;;62.22;;
53915;SDS011;39827;49.652;18.770;2023-02-15T08:17:12;57.58;;;52.30;;
53915;SDS011;39827;49.652;18.770;2023-02-15T08:19:38;48.78;;;43.85;;
53915;SDS011;39827;49.652;18.770;2023-02-15T08:22:07;46.47;;;41.83;;
53915;SDS011;39827;49.652;18.770;2023-02-15T08:24:37;50.60;;;45.53;;
53915;SDS011;39827;49.652;18.770;2023-02-15T08:27:03;41.08;;;37.00;;
53915;SDS011;39827;49.652;18.770;2023-02-15T08:29:29;43.58;;;38.28;;
53915;SDS011;39827;49.652;18.770;2023-02-15T08:32:05;42.00;;;37.55;;
53915;SDS011;39827;49.652;18.770;2023-02-15T08:34:35;48.47;;;43.67;;
53915;SDS011;39827;49.652;18.770;2023-02-15T08:37:02;52.67;;;47.42;;
53915;SDS011;39827;49.652;18.770;2023-02-15T08:39:28;51.28;;;46.08;;
53915;SDS011;39827;49.652;18.770;2023-02-15T08:41:54;41.67;;;37.13;;
53915;SDS011;39827;49.652;18.770;2023-02-15T08:44:20;36.63;;;29.90;;
53915;SDS011;39827;49.652;18.770;2023-02-15T08:46:46;34.80;;;29.67;;
53915;SDS011;39827;49.652;18.770;2023-02-15T08:49:14;33.60;;;26.65;;
53915;SDS011;39827;49.652;18.770;2023-02-15T08:51:41;33.47;;;24.55;;
53915;SDS011;39827;49.652;18.770;2023-02-15T08:54:08;38.58;;;34.50;;
53915;SDS011;39827;49.652;18.770;2023-02-15T08:56:37;40.17;;;36.08;;
53915;SDS011;39827;49.652;18.770;2023-02-15T08:59:05;48.22;;;43.13;;
53915;SDS011;39827;49.652;18.770;2023-02-15T09:01:31;39.67;;;34.15;;
53915;SDS011;39827;49.652;18.770;2023-02-15T09:04:00;33.40;;;27.13;;
53915;SDS011;39827;49.652;18.770;2023-02-15T09:06:27;36.15;;;28.20;;
53915;SDS011;39827;49.652;18.770;2023-02-15T09:08:54;31.58;;;24.80;;
53915;SDS011;39827;49.652;18.770;2023-02-15T09:11:24;36.35;;;27.52;;
53915;SDS011;39827;49.652;18.770;2023-02-15T09:16:32;35.45;;;28.35;;
53915;SDS011;39827;49.652;18.770;2023-02-15T09:18:58;35.75;;;27.48;;
53915;SDS011;39827;49.652;18.770;2023-02-15T09:21:26;37.58;;;27.60;;
53915;SDS011;39827;49.652;18.770;2023-02-15T09:23:55;36.97;;;27.75;;
53915;SDS011;39827;49.652;18.770;2023-02-15T09:26:22;34.53;;;23.75;;
53915;SDS011;39827;49.652;18.770;2023-02-15T09:28:51;37.22;;;26.88;;
53915;SDS011;39827;49.652;18.770;2023-02-15T09:31:19;35.78;;;27.00;;
53915;SDS011;39827;49.652;18.770;2023-02-15T09:33:47;39.30;;;29.50;;
53915;SDS011;39827;49.652;18.770;2023-02-15T09:36:14;40.72;;;35.90;;
53915;SDS011;39827;49.652;18.770;2023-02-15T09:38:42;35.80;;;27.20;;
53915;SDS011;39827;49.652;18.770;2023-02-15T09:44:10;40.67;;;36.33;;
53915;SDS011;39827;49.652;18.770;2023-02-15T09:49:46;32.40;;;26.58;;
53915;SDS011;39827;49.652;18.770;2023-02-15T09:52:35;36.08;;;32.17;;
53915;SDS011;39827;49.652;18.770;2023-02-15T10:06:32;47.33;;;43.22;;
53915;SDS011;39827;49.652;18.770;2023-02-15T10:27:19;51.50;;;48.30;;
53915;SDS011;39827;49.652;18.770;2023-02-15T10:29:50;46.22;;;43.25;;
53915;SDS011;39827;49.652;18.770;2023-02-15T10:32:36;49.67;;;46.63;;
53915;SDS011;39827;49.652;18.770;2023-02-15T10:38:18;34.13;;;31.95;;
53915;SDS011;39827;49.652;18.770;2023-02-15T10:43:45;40.17;;;37.55;;
53915;SDS011;39827;49.652;18.770;2023-02-15T10:54:42;30.30;;;28.35;;
53915;SDS011;39827;49.652;18.770;2023-02-15T10:57:21;28.65;;;26.75;;
53915;SDS011;39827;49.652;18.770;2023-02-15T11:05:39;25.55;;;23.85;;
53915;SDS011;39827;49.652;18.770;2023-02-15T11:08:10;27.33;;;25.42;;
53915;SDS011;39827;49.652;18.770;2023-02-15T11:10:44;28.00;;;26.15;;
53915;SDS011;39827;49.652;18.770;2023-02-15T11:13:18;27.55;;;25.70;;
53915;SDS011;39827;49.652;18.770;2023-02-15T11:15:55;27.38;;;25.45;;
53915;SDS011;39827;49.652;18.770;2023-02-15T11:18:26;26.55;;;24.75;;
53915;SDS011;39827;49.652;18.770;2023-02-15T11:23:27;28.60;;;26.55;;
53915;SDS011;39827;49.652;18.770;2023-02-15T11:25:57;29.27;;;27.35;;
53915;SDS011;39827;49.652;18.770;2023-02-15T11:28:30;30.83;;;28.88;;
53915;SDS011;39827;49.652;18.770;2023-02-15T11:31:00;30.42;;;28.42;;
53915;SDS011;39827;49.652;18.770;2023-02-15T11:33:38;28.38;;;26.45;;
53915;SDS011;39827;49.652;18.770;2023-02-15T11:36:10;25.98;;;24.20;;
53915;SDS011;39827;49.652;18.770;2023-02-15T11:38:42;37.97;;;35.53;;
53915;SDS011;39827;49.652;18.770;2023-02-15T11:41:10;35.47;;;33.20;;
53915;SDS011;39827;49.652;18.770;2023-02-15T11:46:07;29.08;;;27.15;;
53915;SDS011;39827;49.652;18.770;2023-02-15T11:48:37;28.42;;;26.55;;
53915;SDS011;39827;49.652;18.770;2023-02-15T11:51:02;37.97;;;35.28;;
53915;SDS011;39827;49.652;18.770;2023-02-15T11:53:28;34.17;;;31.88;;
53915;SDS011;39827;49.652;18.770;2023-02-15T11:55:58;25.35;;;23.45;;
53915;SDS011;39827;49.652;18.770;2023-02-15T12:00:58;35.45;;;33.00;;
53915;SDS011;39827;49.652;18.770;2023-02-15T12:04:08;39.35;;;36.60;;
53915;SDS011;39827;49.652;18.770;2023-02-15T12:06:37;35.40;;;32.92;;
53915;SDS011;39827;49.652;18.770;2023-02-15T12:09:55;36.58;;;33.95;;
53915;SDS011;39827;49.652;18.770;2023-02-15T12:15:02;41.53;;;38.70;;
53915;SDS011;39827;49.652;18.770;2023-02-15T12:22:53;29.77;;;27.38;;
53915;SDS011;39827;49.652;18.770;2023-02-15T12:25:37;29.40;;;27.35;;
53915;SDS011;39827;49.652;18.770;2023-02-15T12:28:24;27.83;;;25.85;;
53915;SDS011;39827;49.652;18.770;2023-02-15T12:30:51;28.65;;;26.63;;
53915;SDS011;39827;49.652;18.770;2023-02-15T12:36:00;43.50;;;40.58;;
53915;SDS011;39827;49.652;18.770;2023-02-15T12:41:45;33.72;;;31.33;;
53915;SDS011;39827;49.652;18.770;2023-02-15T12:44:21;30.60;;;28.50;;
53915;SDS011;39827;49.652;18.770;2023-02-15T12:47:01;36.78;;;34.17;;
53915;SDS011;39827;49.652;18.770;2023-02-15T12:49:37;41.17;;;38.25;;
53915;SDS011;39827;49.652;18.770;2023-02-15T12:52:15;38.38;;;35.83;;
53915;SDS011;39827;49.652;18.770;2023-02-15T12:54:50;32.63;;;30.33;;
53915;SDS011;39827;49.652;18.770;2023-02-15T12:57:29;32.42;;;30.02;;
53915;SDS011;39827;49.652;18.770;2023-02-15T12:59:56;32.03;;;29.83;;
53915;SDS011;39827;49.652;18.770;2023-02-15T13:07:49;47.30;;;44.28;;
53915;SDS011;39827;49.652;18.770;2023-02-15T13:13:03;52.17;;;48.70;;
53915;SDS011;39827;49.652;18.770;2023-02-15T13:15:36;55.17;;;51.78;;
53915;SDS011;39827;49.652;18.770;2023-02-15T13:18:08;62.90;;;58.95;;
53915;SDS011;39827;49.652;18.770;2023-02-15T13:23:06;91.45;;;86.07;;
53915;SDS011;39827;49.652;18.770;2023-02-15T13:25:45;95.88;;;90.22;;
53915;SDS011;39827;49.652;18.770;2023-02-15T13:28:16;95.35;;;89.80;;
53915;SDS011;39827;49.652;18.770;2023-02-15T13:30:45;82.65;;;77.75;;
53915;SDS011;39827;49.652;18.770;2023-02-15T13:36:01;105.55;;;99.25;;
53915;SDS011;39827;49.652;18.770;2023-02-15T13:41:22;102.40;;;96.50;;
53915;SDS011;39827;49.652;18.770;2023-02-15T13:44:10;129.90;;;121.80;;
53915;SDS011;39827;49.652;18.770;2023-02-15T13:46:50;136.73;;;128.85;;
53915;SDS011;39827;49.652;18.770;2023-02-15T14:08:00;245.35;;;229.88;;
53915;SDS011;39827;49.652;18.770;2023-02-15T14:21:52;384.33;;;359.25;;
53915;SDS011;39827;49.652;18.770;2023-02-15T14:24:27;381.75;;;357.27;;
53915;SDS011;39827;49.652;18.770;2023-02-15T14:32:26;457.42;;;428.02;;
53915;SDS011;39827;49.652;18.770;2023-02-15T14:34:53;428.92;;;401.23;;
53915;SDS011;39827;49.652;18.770;2023-02-15T14:37:24;507.63;;;474.02;;
53915;SDS011;39827;49.652;18.770;2023-02-15T14:43:18;588.28;;;547.85;;
53915;SDS011;39827;49.652;18.770;2023-02-15T14:45:54;582.55;;;542.28;;
53915;SDS011;39827;49.652;18.770;2023-02-15T14:48:25;562.78;;;524.50;;
53915;SDS011;39827;49.652;18.770;2023-02-15T14:50:55;578.95;;;538.47;;
53915;SDS011;39827;49.652;18.770;2023-02-15T14:58:54;509.70;;;475.85;;
53915;SDS011;39827;49.652;18.770;2023-02-15T15:01:31;517.28;;;483.10;;
53915;SDS011;39827;49.652;18.770;2023-02-15T15:03:59;519.33;;;485.00;;
53915;SDS011;39827;49.652;18.770;2023-02-15T15:06:29;533.75;;;498.17;;
53915;SDS011;39827;49.652;18.770;2023-02-15T15:09:39;531.95;;;496.52;;
53915;SDS011;39827;49.652;18.770;2023-02-15T15:11:52;466.05;;;435.98;;
53915;SDS011;39827;49.652;18.770;2023-02-15T15:17:00;521.75;;;487.85;;
53915;SDS011;39827;49.652;18.770;2023-02-15T15:22:17;486.33;;;454.67;;
53915;SDS011;39827;49.652;18.770;2023-02-15T15:32:37;519.25;;;485.10;;
53915;SDS011;39827;49.652;18.770;2023-02-15T15:40:33;468.33;;;437.60;;
53915;SDS011;39827;49.652;18.770;2023-02-15T15:46:21;441.08;;;412.98;;
53915;SDS011;39827;49.652;18.770;2023-02-15T15:48:53;473.35;;;443.13;;
53915;SDS011;39827;49.652;18.770;2023-02-15T15:51:27;473.65;;;442.10;;
53915;SDS011;39827;49.652;18.770;2023-02-15T15:53:56;490.13;;;458.60;;
53915;SDS011;39827;49.652;18.770;2023-02-15T15:56:25;544.03;;;507.27;;
53915;SDS011;39827;49.652;18.770;2023-02-15T16:01:34;386.48;;;362.45;;
53915;SDS011;39827;49.652;18.770;2023-02-15T16:04:10;455.67;;;426.13;;
53915;SDS011;39827;49.652;18.770;2023-02-15T16:06:38;272.90;;;255.57;;
53915;SDS011;39827;49.652;18.770;2023-02-15T16:11:43;364.75;;;338.70;;
53915;SDS011;39827;49.652;18.770;2023-02-15T16:14:19;364.70;;;338.80;;
53915;SDS011;39827;49.652;18.770;2023-02-15T16:16:52;349.88;;;325.48;;
53915;SDS011;39827;49.652;18.770;2023-02-15T16:19:22;433.38;;;402.10;;
53915;SDS011;39827;49.652;18.770;2023-02-15T16:21:51;427.48;;;396.38;;
53915;SDS011;39827;49.652;18.770;2023-02-15T16:29:42;223.32;;;208.48;;
53915;SDS011;39827;49.652;18.770;2023-02-15T16:32:21;211.30;;;196.65;;
53915;SDS011;39827;49.652;18.770;2023-02-15T16:34:51;216.02;;;200.70;;
53915;SDS011;39827;49.652;18.770;2023-02-15T16:37:18;238.30;;;221.27;;
53915;SDS011;39827;49.652;18.770;2023-02-15T16:39:52;252.45;;;234.25;;
53915;SDS011;39827;49.652;18.770;2023-02-15T16:42:19;228.75;;;212.75;;
53915;SDS011;39827;49.652;18.770;2023-02-15T16:44:45;265.42;;;246.90;;
53915;SDS011;39827;49.652;18.770;2023-02-15T16:47:31;281.17;;;261.98;;
53915;SDS011;39827;49.652;18.770;2023-02-15T16:50:02;267.63;;;249.82;;
53915;SDS011;39827;49.652;18.770;2023-02-15T16:52:29;327.50;;;305.55;;
53915;SDS011;39827;49.652;18.770;2023-02-15T16:54:56;322.05;;;300.52;;
53915;SDS011;39827;49.652;18.770;2023-02-15T16:57:24;299.83;;;279.77;;
53915;SDS011;39827;49.652;18.770;2023-02-15T16:59:54;310.70;;;290.02;;
53915;SDS011;39827;49.652;18.770;2023-02-15T17:02:24;344.10;;;320.75;;
53915;SDS011;39827;49.652;18.770;2023-02-15T17:07:40;286.45;;;266.40;;
53915;SDS011;39827;49.652;18.770;2023-02-15T17:10:26;268.45;;;249.77;;
53915;SDS011;39827;49.652;18.770;2023-02-15T17:12:55;252.35;;;233.98;;
53915;SDS011;39827;49.652;18.770;2023-02-15T17:15:35;247.35;;;229.18;;
53915;SDS011;39827;49.652;18.770;2023-02-15T17:18:06;261.55;;;240.68;;
53915;SDS011;39827;49.652;18.770;2023-02-15T17:20:35;239.05;;;221.23;;
53915;SDS011;39827;49.652;18.770;2023-02-15T17:23:03;247.25;;;228.07;;
53915;SDS011;39827;49.652;18.770;2023-02-15T17:25:37;249.73;;;230.00;;
53915;SDS011;39827;49.652;18.770;2023-02-15T17:28:05;253.75;;;234.40;;
53915;SDS011;39827;49.652;18.770;2023-02-15T17:30:42;258.98;;;239.20;;
53915;SDS011;39827;49.652;18.770;2023-02-15T17:33:19;252.65;;;233.13;;
53915;SDS011;39827;49.652;18.770;2023-02-15T17:38:35;279.88;;;258.15;;